Grundy, VA

11:05 AM EDT on August 29, 2015 (GMT -0400)
KM4HDM - Richlands, Virginia | | Change Station
CLOSE
Current Station
Personal Weather Station
Location: Richlands, VA
Elevation: 1972 ft
Nearby Weather Stations

Elev 1972 ft 37.09 °N, 81.83 °W | Updated 7 minutes ago

Partly Cloudy
Partly Cloudy
76.6 °F
Feels Like 78 °F
N
0.0
Wind Variable Wind from SSW

Today
High -- | Low -- °F
--% Chance of Precip.
Yesterday
High -- | Low -- °F
Precip. -- in
6:56 AM 8:01 PM
Full, 100% visible
Pressure 30.31 in
Visibility 10.0 miles
Clouds Mostly Cloudy 8500 ft
Heat Index 78 °F
Dew Point 62 °F
Humidity 60%
Rainfall 0.00 in
Snow Depth Not available.
UV 4 out of 12
Pollen 8.40 out of 12
Air Quality Not available.
Flu Activity Not available.
METAR KJFZ 291455Z AUTO 19003KT 10SM BKN085 23/M05 A3031 RMK AO2 T02311052
Pressure 30.31 in
Visibility 10.0 miles
Clouds Mostly Cloudy 8500 ft
Heat Index 78 °F
Dew Point 62 °F
Humidity 60%
Rainfall 0.00 in
Snow Depth Not available.
UV 4 out of 12
Pollen 8.40 out of 12
Air Quality Not available.
Flu Activity Not available.
METAR KJFZ 291455Z AUTO 19003KT 10SM BKN085 23/M05 A3031 RMK AO2 T02311052

10-Day Weather Forecast

×

Almanac

Astronomy

Aug. 29, 2015 Rise Set
Actual Time
Civil Twilight
Nautical Twilight
Astronomical Twilight
Moon
Length of Visible Light
Length of Day
Tomorrow will be .
, % of the Moon is Illuminated

Today's Extremes

State Highs State Lows

Community

WunderPhotos

Upload Photos

1,850,684 photos uploaded!

WunderBlogs® & News

Nearby

Air Quality

  Air Quality AQ Index Pollutant
Not available.

Snow Depth

Station Depth Elevation

Earthquake Activity

City Distance Mag. Time & Date
Minimum magnitude displayed is 2.5.

Coastal Water Temperatures

Place Temperature

Stations

Nearby Weather Stations

Station Location Temp. Windchill Dew Point Humidity Wind Precip. Elev Updated Type